Flag for USA

Past Weather in New Orleans, Louisiana, USA — Yesterday and Last 2 Weeks

Currently: 58 °F. Sunny. (Weather station: Lakefront Airport, USA). See more current weather

Past Weather in New Orleans — Graph

°F

New Orleans Temperature Yesterday

Maximum temperature yesterday: 75 °F (at 12:53 pm)
Minimum temperature yesterday: 50 °F (at 12:53 am)
Average temperature yesterday: 60 °F

High & Low Weather Summary for the Past Weeks

 TemperatureHumidityPressure
High75 °F (Jan 19, 12:53 pm)90% (Jan 7, 2:15 am)30.43 "Hg (Jan 7, 2:15 am)
Low38 °F (Jan 12, 5:53 am)21% (Jan 18, 11:53 am)29.80 "Hg (Jan 7, 2:53 am)
Average50 °F67%30.14 "Hg
* Reported Jan 5 9:53 am — Jan 20 9:53 am, New Orleans. Weather by CustomWeather, © 2021

Note: Actual official high and low records may vary slightly from our data, if they occured in-between our weather recording intervals... More about our weather records

New Orleans Weather History for the Previous 24 Hours

Scroll right to see more
 ConditionsComfort  
Time TempWeatherWind HumidityBarometerVisibility
9:53 am
Wed, Jan 20
58 °FSunny.6 mph72%30.37 "Hg10 mi
8:53 am56 °FSunny.10 mph81%30.34 "Hg10 mi
7:53 am54 °FScattered clouds.7 mph90%30.35 "Hg8 mi
7:24 am54 °FPartly sunny.No wind90%30.36 "Hg10 mi
6:53 am55 °FOvercast.5 mph87%30.34 "Hg10 mi
6:33 am55 °FOvercast.5 mph87%30.35 "Hg10 mi
6:21 am54 °FPassing clouds.3 mph90%30.35 "Hg10 mi
5:53 am54 °FPassing clouds.5 mph86%30.33 "Hg10 mi
4:53 am54 °FClear.6 mph90%30.32 "Hg10 mi
4:08 am54 °FPassing clouds.8 mph90%30.34 "Hg9 mi
3:31 am54 °FFog.9 mph86%30.33 "Hg1 mi
2:53 am53 °FClear.No wind89%30.32 "Hg8 mi
1:53 am54 °FPassing clouds.3 mph90%30.33 "Hg7 mi
1:31 am54 °FFog.3 mph86%30.33 "Hg6 mi
12:53 am54 °FClear.5 mph90%30.32 "Hg10 mi
11:53 pm
Tue, Jan 19
55 °FClear.5 mph87%30.32 "Hg8 mi
10:53 pm57 °FClear.No wind83%30.32 "Hg10 mi
9:53 pm57 °FClear.6 mph83%30.33 "Hg10 mi
8:53 pm59 °FClear.7 mph81%30.32 "Hg10 mi
7:53 pm60 °FClear.7 mph78%30.32 "Hg10 mi
6:53 pm64 °FClear.3 mph70%30.32 "Hg10 mi
5:53 pm65 °FClear.8 mph68%30.29 "Hg10 mi
4:53 pm65 °FSunny.3 mph63%30.30 "Hg10 mi
3:53 pm67 °FSunny.7 mph59%30.28 "Hg10 mi
2:53 pm67 °FSunny.8 mph59%30.25 "Hg10 mi
1:53 pm74 °FSunny.12 mph45%30.26 "Hg10 mi
12:53 pm75 °FSunny.12 mph43%30.26 "Hg10 mi
11:53 am71 °FSunny.15 mph45%30.29 "Hg10 mi
Weather by CustomWeather, © 2021

See weather overview